sensor_id;sensor_type;location;lat;lon;timestamp;temperature;humidity
4201;DHT22;2114;50.398;8.814;2023-03-19T00:04:57;10.90;99.90
4201;DHT22;2114;50.398;8.814;2023-03-19T00:09:58;10.90;99.90
4201;DHT22;2114;50.398;8.814;2023-03-19T00:14:58;10.90;99.90
4201;DHT22;2114;50.398;8.814;2023-03-19T00:19:59;10.80;99.90
4201;DHT22;2114;50.398;8.814;2023-03-19T00:24:59;10.80;99.90
4201;DHT22;2114;50.398;8.814;2023-03-19T00:30:00;10.80;99.90
4201;DHT22;2114;50.398;8.814;2023-03-19T00:35:02;10.80;99.90
4201;DHT22;2114;50.398;8.814;2023-03-19T00:40:04;10.70;99.90
4201;DHT22;2114;50.398;8.814;2023-03-19T00:45:05;10.70;99.90
4201;DHT22;2114;50.398;8.814;2023-03-19T00:50:06;10.70;99.90
4201;DHT22;2114;50.398;8.814;2023-03-19T00:55:07;10.60;99.90
4201;DHT22;2114;50.398;8.814;2023-03-19T01:00:08;10.60;99.90
4201;DHT22;2114;50.398;8.814;2023-03-19T01:05:10;10.60;99.90
4201;DHT22;2114;50.398;8.814;2023-03-19T01:10:11;10.50;99.90
4201;DHT22;2114;50.398;8.814;2023-03-19T01:15:11;10.60;99.90
4201;DHT22;2114;50.398;8.814;2023-03-19T01:20:12;10.50;99.90
4201;DHT22;2114;50.398;8.814;2023-03-19T01:25:13;10.50;99.90
4201;DHT22;2114;50.398;8.814;2023-03-19T01:30:14;10.50;99.90
4201;DHT22;2114;50.398;8.814;2023-03-19T01:35:15;10.50;99.90
4201;DHT22;2114;50.398;8.814;2023-03-19T01:40:16;10.50;99.90
4201;DHT22;2114;50.398;8.814;2023-03-19T01:45:36;10.50;99.90
4201;DHT22;2114;50.398;8.814;2023-03-19T01:50:40;10.40;99.90
4201;DHT22;2114;50.398;8.814;2023-03-19T01:55:41;10.40;99.90
4201;DHT22;2114;50.398;8.814;2023-03-19T02:00:42;10.40;99.90
4201;DHT22;2114;50.398;8.814;2023-03-19T02:05:44;10.30;99.90
4201;DHT22;2114;50.398;8.814;2023-03-19T02:10:46;10.30;99.90
4201;DHT22;2114;50.398;8.814;2023-03-19T02:15:48;10.30;99.90
4201;DHT22;2114;50.398;8.814;2023-03-19T02:26:11;10.20;99.90
4201;DHT22;2114;50.398;8.814;2023-03-19T02:31:14;10.20;99.90
4201;DHT22;2114;50.398;8.814;2023-03-19T02:36:17;10.10;99.90
4201;DHT22;2114;50.398;8.814;2023-03-19T02:41:18;10.10;99.90
4201;DHT22;2114;50.398;8.814;2023-03-19T02:46:19;10.10;99.90
4201;DHT22;2114;50.398;8.814;2023-03-19T02:51:20;10.10;99.90
4201;DHT22;2114;50.398;8.814;2023-03-19T02:56:20;10.00;99.90
4201;DHT22;2114;50.398;8.814;2023-03-19T03:01:21;10.00;99.90
4201;DHT22;2114;50.398;8.814;2023-03-19T03:06:22;10.00;99.90
4201;DHT22;2114;50.398;8.814;2023-03-19T03:11:22;10.00;99.90
4201;DHT22;2114;50.398;8.814;2023-03-19T03:16:24;9.90;99.90
4201;DHT22;2114;50.398;8.814;2023-03-19T03:21:25;9.90;99.90
4201;DHT22;2114;50.398;8.814;2023-03-19T03:26:25;9.90;99.90
4201;DHT22;2114;50.398;8.814;2023-03-19T03:31:26;9.90;99.90
4201;DHT22;2114;50.398;8.814;2023-03-19T03:36:27;9.90;99.90
4201;DHT22;2114;50.398;8.814;2023-03-19T03:41:28;9.90;99.90
4201;DHT22;2114;50.398;8.814;2023-03-19T03:46:28;9.90;99.90
4201;DHT22;2114;50.398;8.814;2023-03-19T03:51:30;9.80;99.90
4201;DHT22;2114;50.398;8.814;2023-03-19T03:56:30;9.80;99.90
4201;DHT22;2114;50.398;8.814;2023-03-19T04:01:32;9.80;99.90
4201;DHT22;2114;50.398;8.814;2023-03-19T04:06:33;9.80;99.90
4201;DHT22;2114;50.398;8.814;2023-03-19T04:11:34;9.70;99.90
4201;DHT22;2114;50.398;8.814;2023-03-19T04:16:35;9.60;99.90
4201;DHT22;2114;50.398;8.814;2023-03-19T04:21:36;9.50;99.90
4201;DHT22;2114;50.398;8.814;2023-03-19T04:26:37;9.40;99.90
4201;DHT22;2114;50.398;8.814;2023-03-19T04:31:38;9.30;99.90
4201;DHT22;2114;50.398;8.814;2023-03-19T04:36:39;9.30;99.90
4201;DHT22;2114;50.398;8.814;2023-03-19T04:41:39;9.20;99.90
4201;DHT22;2114;50.398;8.814;2023-03-19T04:46:40;9.20;99.90
4201;DHT22;2114;50.398;8.814;2023-03-19T04:51:41;9.10;99.90
4201;DHT22;2114;50.398;8.814;2023-03-19T04:56:42;9.00;99.90
4201;DHT22;2114;50.398;8.814;2023-03-19T05:01:42;9.00;99.90
4201;DHT22;2114;50.398;8.814;2023-03-19T05:06:43;9.00;99.90
4201;DHT22;2114;50.398;8.814;2023-03-19T05:11:44;8.90;99.90
4201;DHT22;2114;50.398;8.814;2023-03-19T05:16:44;8.90;99.90
4201;DHT22;2114;50.398;8.814;2023-03-19T05:21:45;8.90;99.90
4201;DHT22;2114;50.398;8.814;2023-03-19T05:26:46;8.80;99.90
4201;DHT22;2114;50.398;8.814;2023-03-19T05:31:47;8.90;99.90
4201;DHT22;2114;50.398;8.814;2023-03-19T05:36:48;8.90;99.90
4201;DHT22;2114;50.398;8.814;2023-03-19T05:41:49;8.90;99.90
4201;DHT22;2114;50.398;8.814;2023-03-19T05:46:49;8.90;99.90
4201;DHT22;2114;50.398;8.814;2023-03-19T05:51:50;8.80;99.90
4201;DHT22;2114;50.398;8.814;2023-03-19T05:56:51;8.80;99.90
4201;DHT22;2114;50.398;8.814;2023-03-19T06:01:51;8.80;99.90
4201;DHT22;2114;50.398;8.814;2023-03-19T06:06:52;8.80;99.90
4201;DHT22;2114;50.398;8.814;2023-03-19T06:11:52;8.80;99.90
4201;DHT22;2114;50.398;8.814;2023-03-19T06:16:53;8.80;99.90
4201;DHT22;2114;50.398;8.814;2023-03-19T06:21:54;8.90;99.90
4201;DHT22;2114;50.398;8.814;2023-03-19T06:26:54;8.90;99.90
4201;DHT22;2114;50.398;8.814;2023-03-19T06:31:55;8.90;99.90
4201;DHT22;2114;50.398;8.814;2023-03-19T06:36:56;9.00;99.90
4201;DHT22;2114;50.398;8.814;2023-03-19T06:41:56;9.00;99.90
4201;DHT22;2114;50.398;8.814;2023-03-19T06:46:57;9.10;99.90
4201;DHT22;2114;50.398;8.814;2023-03-19T06:51:57;9.10;99.90
4201;DHT22;2114;50.398;8.814;2023-03-19T06:56:58;9.20;99.90
4201;DHT22;2114;50.398;8.814;2023-03-19T07:01:58;9.30;99.90
4201;DHT22;2114;50.398;8.814;2023-03-19T07:06:59;9.30;99.90
4201;DHT22;2114;50.398;8.814;2023-03-19T07:12:01;9.40;99.90
4201;DHT22;2114;50.398;8.814;2023-03-19T07:17:02;9.50;99.90
4201;DHT22;2114;50.398;8.814;2023-03-19T07:22:03;9.50;99.90
4201;DHT22;2114;50.398;8.814;2023-03-19T07:27:03;9.60;99.90
4201;DHT22;2114;50.398;8.814;2023-03-19T07:32:05;9.70;99.90
4201;DHT22;2114;50.398;8.814;2023-03-19T07:37:06;9.80;99.90
4201;DHT22;2114;50.398;8.814;2023-03-19T07:42:06;9.90;99.90
4201;DHT22;2114;50.398;8.814;2023-03-19T07:47:07;10.00;99.90
4201;DHT22;2114;50.398;8.814;2023-03-19T07:52:08;10.10;99.90
4201;DHT22;2114;50.398;8.814;2023-03-19T07:57:09;10.20;99.90
4201;DHT22;2114;50.398;8.814;2023-03-19T08:02:11;10.40;99.90
4201;DHT22;2114;50.398;8.814;2023-03-19T08:07:11;10.60;99.90
4201;DHT22;2114;50.398;8.814;2023-03-19T08:12:13;11.00;99.90
4201;DHT22;2114;50.398;8.814;2023-03-19T08:17:14;11.20;99.90
4201;DHT22;2114;50.398;8.814;2023-03-19T08:22:15;11.50;99.90
4201;DHT22;2114;50.398;8.814;2023-03-19T08:27:16;11.60;99.90
4201;DHT22;2114;50.398;8.814;2023-03-19T08:32:17;11.70;99.90
4201;DHT22;2114;50.398;8.814;2023-03-19T08:37:17;11.70;99.90
4201;DHT22;2114;50.398;8.814;2023-03-19T08:42:19;11.80;99.90
4201;DHT22;2114;50.398;8.814;2023-03-19T08:47:20;11.80;99.90
4201;DHT22;2114;50.398;8.814;2023-03-19T08:52:23;11.80;99.90
4201;DHT22;2114;50.398;8.814;2023-03-19T08:57:24;11.90;99.90
4201;DHT22;2114;50.398;8.814;2023-03-19T09:02:25;12.00;99.90
4201;DHT22;2114;50.398;8.814;2023-03-19T09:07:26;12.20;99.90
4201;DHT22;2114;50.398;8.814;2023-03-19T09:12:27;12.40;99.90
4201;DHT22;2114;50.398;8.814;2023-03-19T09:17:27;12.60;99.90
4201;DHT22;2114;50.398;8.814;2023-03-19T09:22:28;12.70;99.90
4201;DHT22;2114;50.398;8.814;2023-03-19T09:27:29;12.90;99.90
4201;DHT22;2114;50.398;8.814;2023-03-19T09:32:29;13.00;99.90
4201;DHT22;2114;50.398;8.814;2023-03-19T09:37:30;13.10;99.90
4201;DHT22;2114;50.398;8.814;2023-03-19T09:47:36;13.20;99.90
4201;DHT22;2114;50.398;8.814;2023-03-19T09:52:50;13.40;99.90
4201;DHT22;2114;50.398;8.814;2023-03-19T09:57:57;13.50;99.90
4201;DHT22;2114;50.398;8.814;2023-03-19T10:13:46;15.20;99.90
4201;DHT22;2114;50.398;8.814;2023-03-19T10:18:56;15.70;99.90
4201;DHT22;2114;50.398;8.814;2023-03-19T10:24:12;15.90;99.90
4201;DHT22;2114;50.398;8.814;2023-03-19T10:29:21;16.50;99.90
4201;DHT22;2114;50.398;8.814;2023-03-19T10:34:37;17.60;99.90
4201;DHT22;2114;50.398;8.814;2023-03-19T10:39:41;18.00;99.90
4201;DHT22;2114;50.398;8.814;2023-03-19T10:50:30;18.20;99.90
4201;DHT22;2114;50.398;8.814;2023-03-19T10:55:32;18.00;99.90
4201;DHT22;2114;50.398;8.814;2023-03-19T11:00:33;17.90;99.90
4201;DHT22;2114;50.398;8.814;2023-03-19T11:05:34;17.50;99.90
4201;DHT22;2114;50.398;8.814;2023-03-19T11:10:35;17.10;99.90
4201;DHT22;2114;50.398;8.814;2023-03-19T11:15:37;16.70;99.90
4201;DHT22;2114;50.398;8.814;2023-03-19T11:20:38;16.40;99.90
4201;DHT22;2114;50.398;8.814;2023-03-19T11:25:41;16.30;99.90
4201;DHT22;2114;50.398;8.814;2023-03-19T11:36:27;16.00;99.90
4201;DHT22;2114;50.398;8.814;2023-03-19T11:52:28;16.10;99.90
4201;DHT22;2114;50.398;8.814;2023-03-19T11:57:42;16.10;99.90
4201;DHT22;2114;50.398;8.814;2023-03-19T12:08:42;15.60;99.90
4201;DHT22;2114;50.398;8.814;2023-03-19T12:14:37;15.20;99.90
4201;DHT22;2114;50.398;8.814;2023-03-19T12:25:23;14.70;99.90
4201;DHT22;2114;50.398;8.814;2023-03-19T12:30:35;14.50;99.90
4201;DHT22;2114;50.398;8.814;2023-03-19T12:35:39;14.30;99.90
4201;DHT22;2114;50.398;8.814;2023-03-19T12:40:56;14.30;99.90
4201;DHT22;2114;50.398;8.814;2023-03-19T12:46:06;14.20;99.90
4201;DHT22;2114;50.398;8.814;2023-03-19T12:51:11;14.30;99.90
4201;DHT22;2114;50.398;8.814;2023-03-19T13:01:38;14.50;99.90
4201;DHT22;2114;50.398;8.814;2023-03-19T13:07:03;14.80;99.90
4201;DHT22;2114;50.398;8.814;2023-03-19T13:12:26;15.10;99.90
4201;DHT22;2114;50.398;8.814;2023-03-19T13:22:43;15.60;99.90
4201;DHT22;2114;50.398;8.814;2023-03-19T13:27:52;16.00;99.90
4201;DHT22;2114;50.398;8.814;2023-03-19T13:33:04;16.10;99.90
4201;DHT22;2114;50.398;8.814;2023-03-19T13:38:26;16.00;99.90
4201;DHT22;2114;50.398;8.814;2023-03-19T14:04:18;15.70;99.90
4201;DHT22;2114;50.398;8.814;2023-03-19T14:09:44;15.80;99.90
4201;DHT22;2114;50.398;8.814;2023-03-19T14:25:19;15.60;99.90
4201;DHT22;2114;50.398;8.814;2023-03-19T14:30:36;15.50;99.90
4201;DHT22;2114;50.398;8.814;2023-03-19T14:35:40;15.40;99.90
4201;DHT22;2114;50.398;8.814;2023-03-19T14:40:48;15.50;99.90
4201;DHT22;2114;50.398;8.814;2023-03-19T14:46:08;15.80;99.90
4201;DHT22;2114;50.398;8.814;2023-03-19T14:56:41;16.00;99.90
4201;DHT22;2114;50.398;8.814;2023-03-19T15:01:48;16.10;99.90
4201;DHT22;2114;50.398;8.814;2023-03-19T15:06:55;16.10;99.90
4201;DHT22;2114;50.398;8.814;2023-03-19T15:17:23;16.10;99.90
4201;DHT22;2114;50.398;8.814;2023-03-19T15:22:31;16.10;99.90
4201;DHT22;2114;50.398;8.814;2023-03-19T15:27:33;16.20;99.90
4201;DHT22;2114;50.398;8.814;2023-03-19T15:32:39;16.00;99.90
4201;DHT22;2114;50.398;8.814;2023-03-19T15:37:44;15.90;99.90
4201;DHT22;2114;50.398;8.814;2023-03-19T15:42:46;15.70;99.90
4201;DHT22;2114;50.398;8.814;2023-03-19T15:47:52;15.60;99.90
4201;DHT22;2114;50.398;8.814;2023-03-19T15:52:57;15.50;99.90
4201;DHT22;2114;50.398;8.814;2023-03-19T15:58:08;15.30;99.90
4201;DHT22;2114;50.398;8.814;2023-03-19T16:03:16;15.20;99.90
4201;DHT22;2114;50.398;8.814;2023-03-19T16:08:22;15.10;99.90
4201;DHT22;2114;50.398;8.814;2023-03-19T16:13:28;15.20;99.90
4201;DHT22;2114;50.398;8.814;2023-03-19T16:18:39;15.20;99.90
4201;DHT22;2114;50.398;8.814;2023-03-19T16:23:44;15.10;99.90
4201;DHT22;2114;50.398;8.814;2023-03-19T16:28:48;15.00;99.90
4201;DHT22;2114;50.398;8.814;2023-03-19T16:33:52;14.90;99.90
4201;DHT22;2114;50.398;8.814;2023-03-19T16:38:55;14.80;99.90
4201;DHT22;2114;50.398;8.814;2023-03-19T16:44:09;14.60;99.90
4201;DHT22;2114;50.398;8.814;2023-03-19T16:49:10;14.40;99.90
4201;DHT22;2114;50.398;8.814;2023-03-19T16:54:11;14.30;99.90
4201;DHT22;2114;50.398;8.814;2023-03-19T16:59:19;14.10;99.90
4201;DHT22;2114;50.398;8.814;2023-03-19T17:04:23;14.00;99.90
4201;DHT22;2114;50.398;8.814;2023-03-19T17:09:23;13.90;99.90
4201;DHT22;2114;50.398;8.814;2023-03-19T17:14:25;13.80;99.90
4201;DHT22;2114;50.398;8.814;2023-03-19T17:19:32;13.60;99.90
4201;DHT22;2114;50.398;8.814;2023-03-19T17:24:34;13.40;99.90
4201;DHT22;2114;50.398;8.814;2023-03-19T17:29:34;13.30;99.90
4201;DHT22;2114;50.398;8.814;2023-03-19T17:34:35;13.10;99.90
4201;DHT22;2114;50.398;8.814;2023-03-19T17:39:36;13.00;99.90
4201;DHT22;2114;50.398;8.814;2023-03-19T17:44:36;12.80;99.90
4201;DHT22;2114;50.398;8.814;2023-03-19T17:49:37;12.60;99.90
4201;DHT22;2114;50.398;8.814;2023-03-19T17:54:41;12.50;99.90
4201;DHT22;2114;50.398;8.814;2023-03-19T17:59:42;12.30;99.90
4201;DHT22;2114;50.398;8.814;2023-03-19T18:04:42;12.10;99.90
4201;DHT22;2114;50.398;8.814;2023-03-19T18:09:43;11.80;99.90
4201;DHT22;2114;50.398;8.814;2023-03-19T18:14:43;11.70;99.90
4201;DHT22;2114;50.398;8.814;2023-03-19T18:19:45;11.50;99.90
4201;DHT22;2114;50.398;8.814;2023-03-19T18:24:48;11.30;99.90
4201;DHT22;2114;50.398;8.814;2023-03-19T18:29:49;11.20;99.90
4201;DHT22;2114;50.398;8.814;2023-03-19T18:34:50;10.90;99.90
4201;DHT22;2114;50.398;8.814;2023-03-19T18:39:51;10.80;99.90
4201;DHT22;2114;50.398;8.814;2023-03-19T18:44:51;10.60;99.90
4201;DHT22;2114;50.398;8.814;2023-03-19T18:49:52;10.50;99.90
4201;DHT22;2114;50.398;8.814;2023-03-19T18:54:56;10.40;99.90
4201;DHT22;2114;50.398;8.814;2023-03-19T18:59:57;10.30;99.90
4201;DHT22;2114;50.398;8.814;2023-03-19T19:05:00;10.30;99.90
4201;DHT22;2114;50.398;8.814;2023-03-19T19:10:01;10.30;99.90
4201;DHT22;2114;50.398;8.814;2023-03-19T19:15:06;10.30;99.90
4201;DHT22;2114;50.398;8.814;2023-03-19T19:20:15;10.30;99.90
4201;DHT22;2114;50.398;8.814;2023-03-19T19:25:24;10.20;99.90
4201;DHT22;2114;50.398;8.814;2023-03-19T19:30:26;10.20;99.90
4201;DHT22;2114;50.398;8.814;2023-03-19T19:35:27;10.20;99.90
4201;DHT22;2114;50.398;8.814;2023-03-19T19:40:29;10.20;99.90
4201;DHT22;2114;50.398;8.814;2023-03-19T19:45:33;10.20;99.90
4201;DHT22;2114;50.398;8.814;2023-03-19T19:50:35;10.10;99.90
4201;DHT22;2114;50.398;8.814;2023-03-19T19:55:36;10.10;99.90
4201;DHT22;2114;50.398;8.814;2023-03-19T20:00:37;10.10;99.90
4201;DHT22;2114;50.398;8.814;2023-03-19T20:05:38;10.10;99.90
4201;DHT22;2114;50.398;8.814;2023-03-19T20:10:40;10.00;99.90
4201;DHT22;2114;50.398;8.814;2023-03-19T20:15:40;9.90;99.90
4201;DHT22;2114;50.398;8.814;2023-03-19T20:20:41;9.90;99.90
4201;DHT22;2114;50.398;8.814;2023-03-19T20:25:46;9.90;99.90
4201;DHT22;2114;50.398;8.814;2023-03-19T20:30:48;9.90;99.90
4201;DHT22;2114;50.398;8.814;2023-03-19T20:35:49;9.90;99.90
4201;DHT22;2114;50.398;8.814;2023-03-19T20:40:55;9.90;99.90
4201;DHT22;2114;50.398;8.814;2023-03-19T20:45:57;9.90;99.90
4201;DHT22;2114;50.398;8.814;2023-03-19T20:50:59;9.90;99.90
4201;DHT22;2114;50.398;8.814;2023-03-19T20:56:01;9.90;99.90
4201;DHT22;2114;50.398;8.814;2023-03-19T21:01:03;10.00;99.90
4201;DHT22;2114;50.398;8.814;2023-03-19T21:06:10;10.00;99.90
4201;DHT22;2114;50.398;8.814;2023-03-19T21:11:17;10.00;99.90
4201;DHT22;2114;50.398;8.814;2023-03-19T21:16:23;10.10;99.90
4201;DHT22;2114;50.398;8.814;2023-03-19T21:21:33;10.10;99.90
4201;DHT22;2114;50.398;8.814;2023-03-19T21:26:38;10.10;99.90
4201;DHT22;2114;50.398;8.814;2023-03-19T21:31:39;10.10;99.90
4201;DHT22;2114;50.398;8.814;2023-03-19T21:36:40;10.10;99.90
4201;DHT22;2114;50.398;8.814;2023-03-19T21:41:41;10.10;99.90
4201;DHT22;2114;50.398;8.814;2023-03-19T21:46:44;10.10;99.90
4201;DHT22;2114;50.398;8.814;2023-03-19T21:51:45;10.10;99.90
4201;DHT22;2114;50.398;8.814;2023-03-19T21:56:46;10.10;99.90
4201;DHT22;2114;50.398;8.814;2023-03-19T22:01:47;10.10;99.90
4201;DHT22;2114;50.398;8.814;2023-03-19T22:06:47;10.10;99.90
4201;DHT22;2114;50.398;8.814;2023-03-19T22:11:48;10.10;99.90
4201;DHT22;2114;50.398;8.814;2023-03-19T22:16:52;10.10;99.90
4201;DHT22;2114;50.398;8.814;2023-03-19T22:21:53;10.10;99.90
4201;DHT22;2114;50.398;8.814;2023-03-19T22:26:56;10.10;99.90
4201;DHT22;2114;50.398;8.814;2023-03-19T22:31:57;10.10;99.90
4201;DHT22;2114;50.398;8.814;2023-03-19T22:36:58;10.10;99.90
4201;DHT22;2114;50.398;8.814;2023-03-19T22:41:59;10.00;99.90
4201;DHT22;2114;50.398;8.814;2023-03-19T22:47:00;10.00;99.90
4201;DHT22;2114;50.398;8.814;2023-03-19T22:52:01;10.00;99.90
4201;DHT22;2114;50.398;8.814;2023-03-19T22:57:02;10.00;99.90
4201;DHT22;2114;50.398;8.814;2023-03-19T23:02:02;10.00;99.90
4201;DHT22;2114;50.398;8.814;2023-03-19T23:07:03;10.00;99.90
4201;DHT22;2114;50.398;8.814;2023-03-19T23:12:05;9.90;99.90
4201;DHT22;2114;50.398;8.814;2023-03-19T23:17:14;9.90;99.90
4201;DHT22;2114;50.398;8.814;2023-03-19T23:22:16;9.90;99.90
4201;DHT22;2114;50.398;8.814;2023-03-19T23:27:22;9.90;99.90
4201;DHT22;2114;50.398;8.814;2023-03-19T23:32:23;9.80;99.90
4201;DHT22;2114;50.398;8.814;2023-03-19T23:37:25;9.80;99.90
4201;DHT22;2114;50.398;8.814;2023-03-19T23:42:28;9.80;99.90
4201;DHT22;2114;50.398;8.814;2023-03-19T23:47:30;9.80;99.90
4201;DHT22;2114;50.398;8.814;2023-03-19T23:52:31;9.70;99.90
4201;DHT22;2114;50.398;8.814;2023-03-19T23:57:32;9.70;99.90
